Time;durP1;ratioP1;P1;durP2;ratioP2;P2;SDS_P1;SDS_P2;PMS_P1;PMS_P2;Temp;Humidity;BMP_temperature;BMP_pressure;BME280_temperature;BME280_humidity;BME280_pressure;Samples;Min_cycle;Max_cycle;Signal;HPM_P1;HPM_P2
2024/04/16 00:01:18;;;;;;;;;12.25;10.25;;;;;;;;5447877;26;8836;-75
2024/04/16 00:03:43;;;;;;;;;12.00;12.00;;;;;;;;5445709;26;8820;-75
2024/04/16 00:06:08;;;;;;;;;12.75;11.50;;;;;;;;5447817;26;8831;-75
2024/04/16 00:08:33;;;;;;;;;12.75;11.25;;;;;;;;5448841;26;8843;-75
2024/04/16 00:11:00;;;;;;;;;11.75;9.00;;;;;;;;5445446;26;8913;-74
2024/04/16 00:13:25;;;;;;;;;12.50;12.25;;;;;;;;5445488;26;8840;-75
2024/04/16 00:15:50;;;;;;;;;10.25;8.75;;;;;;;;5447129;26;12319;-75
2024/04/16 00:18:16;;;;;;;;;12.00;12.00;;;;;;;;5445237;26;8856;-75
2024/04/16 00:20:41;;;;;;;;;10.75;9.00;;;;;;;;5447296;26;9863;-74
2024/04/16 00:23:06;;;;;;;;;12.00;11.50;;;;;;;;5447357;26;8923;-74
2024/04/16 00:25:31;;;;;;;;;10.75;9.00;;;;;;;;5447402;26;9053;-75
2024/04/16 00:27:57;;;;;;;;;12.25;9.00;;;;;;;;5447386;26;8882;-75
2024/04/16 00:30:22;;;;;;;;;14.50;12.50;;;;;;;;5447525;26;8851;-75
2024/04/16 00:32:47;;;;;;;;;18.50;12.75;;;;;;;;5447064;26;8836;-75
2024/04/16 00:35:12;;;;;;;;;12.50;12.50;;;;;;;;5445189;26;8878;-75
2024/04/16 00:37:38;;;;;;;;;12.50;12.00;;;;;;;;5446967;26;8920;-75
2024/04/16 00:40:03;;;;;;;;;14.00;12.75;;;;;;;;5447286;26;8860;-75
2024/04/16 00:42:28;;;;;;;;;15.00;14.00;;;;;;;;5447487;26;9565;-75
2024/04/16 00:44:54;;;;;;;;;13.50;12.25;;;;;;;;5447152;26;8874;-75
2024/04/16 00:47:19;;;;;;;;;13.75;12.00;;;;;;;;5446920;26;8828;-75
2024/04/16 00:49:45;;;;;;;;;18.50;17.50;;;;;;;;5447264;26;8927;-75
2024/04/16 00:52:11;;;;;;;;;15.50;15.00;;;;;;;;5445206;26;9538;-74
2024/04/16 00:54:37;;;;;;;;;18.25;14.00;;;;;;;;5447045;26;11585;-74
2024/04/16 00:57:03;;;;;;;;;12.00;11.75;;;;;;;;5445048;26;11535;-75
2024/04/16 00:59:30;;;;;;;;;13.00;12.00;;;;;;;;5447225;26;8856;-75
2024/04/16 01:01:55;;;;;;;;;13.00;12.00;;;;;;;;5446173;26;9613;-75
2024/04/16 01:04:21;;;;;;;;;13.00;13.00;;;;;;;;5447366;26;11534;-75
2024/04/16 01:06:47;;;;;;;;;14.00;12.50;;;;;;;;5447588;26;8860;-75
2024/04/16 01:09:13;;;;;;;;;14.50;13.50;;;;;;;;5446779;26;9677;-75
2024/04/16 01:11:39;;;;;;;;;13.00;12.00;;;;;;;;5447155;26;12236;-75
2024/04/16 01:14:04;;;;;;;;;12.00;12.00;;;;;;;;5446735;26;11614;-75
2024/04/16 01:16:29;;;;;;;;;10.75;10.50;;;;;;;;5446852;26;8882;-76
2024/04/16 01:18:54;;;;;;;;;14.25;14.00;;;;;;;;5446785;26;8832;-76
2024/04/16 01:21:21;;;;;;;;;14.00;12.00;;;;;;;;5446620;26;8878;-75
2024/04/16 01:23:46;;;;;;;;;12.00;12.00;;;;;;;;5446518;26;8955;-75
2024/04/16 01:26:11;;;;;;;;;10.75;10.75;;;;;;;;5446552;26;11529;-75
2024/04/16 01:28:37;;;;;;;;;11.00;11.00;;;;;;;;5446468;26;8835;-76
2024/04/16 01:31:02;;;;;;;;;12.00;12.00;;;;;;;;5446525;26;8870;-76
2024/04/16 01:33:27;;;;;;;;;13.25;11.75;;;;;;;;5446373;26;8933;-75
2024/04/16 01:35:53;;;;;;;;;18.75;14.25;;;;;;;;5446363;26;8859;-75
2024/04/16 01:38:19;;;;;;;;;13.50;13.50;;;;;;;;5446551;26;8950;-76
2024/04/16 01:40:44;;;;;;;;;12.25;9.75;;;;;;;;5444219;26;11542;-76
2024/04/16 01:43:09;;;;;;;;;12.50;12.25;;;;;;;;5446300;26;8804;-76
2024/04/16 01:45:34;;;;;;;;;14.00;13.00;;;;;;;;5446270;26;9090;-76
2024/04/16 01:47:59;;;;;;;;;13.75;13.00;;;;;;;;5446213;26;9088;-76
2024/04/16 01:50:25;;;;;;;;;15.50;13.25;;;;;;;;5446458;26;8840;-76
2024/04/16 01:52:50;;;;;;;;;14.50;13.00;;;;;;;;5444314;26;8820;-76
2024/04/16 01:55:15;;;;;;;;;14.25;11.75;;;;;;;;5445862;26;8815;-76
2024/04/16 01:57:40;;;;;;;;;14.75;13.00;;;;;;;;5445786;26;8824;-76
2024/04/16 02:00:07;;;;;;;;;12.25;9.25;;;;;;;;5446328;26;8871;-76
2024/04/16 02:02:35;;;;;;;;;14.00;11.00;;;;;;;;5445926;26;8812;-75
2024/04/16 02:05:00;;;;;;;;;15.00;12.50;;;;;;;;5445859;26;11552;-76
2024/04/16 02:07:26;;;;;;;;;11.00;11.00;;;;;;;;5446290;26;11504;-76
2024/04/16 02:09:51;;;;;;;;;12.00;12.00;;;;;;;;5446375;26;8919;-76
2024/04/16 02:12:17;;;;;;;;;13.50;11.25;;;;;;;;5446179;26;11528;-76
2024/04/16 02:14:42;;;;;;;;;11.25;11.00;;;;;;;;5448853;26;9044;-77
2024/04/16 02:17:07;;;;;;;;;10.00;8.75;;;;;;;;5449832;26;8907;-78
2024/04/16 02:19:33;;;;;;;;;12.25;12.00;;;;;;;;5450033;26;8844;-77
2024/04/16 02:21:58;;;;;;;;;16.00;12.00;;;;;;;;5450016;26;8850;-76
2024/04/16 02:24:24;;;;;;;;;13.25;12.50;;;;;;;;5448833;26;9675;-76
2024/04/16 02:26:50;;;;;;;;;11.00;9.00;;;;;;;;5448796;26;8940;-77
2024/04/16 02:29:15;;;;;;;;;13.00;13.00;;;;;;;;5449589;26;11497;-76
2024/04/16 02:31:40;;;;;;;;;10.50;10.50;;;;;;;;5449126;26;8804;-76
2024/04/16 02:34:05;;;;;;;;;13.00;11.25;;;;;;;;5449136;26;8913;-77
2024/04/16 02:36:31;;;;;;;;;12.00;11.50;;;;;;;;5448871;26;9026;-76
2024/04/16 02:38:56;;;;;;;;;13.25;12.00;;;;;;;;5448933;26;8839;-77
2024/04/16 02:41:21;;;;;;;;;13.50;10.50;;;;;;;;5446981;26;8832;-76
2024/04/16 02:43:46;;;;;;;;;12.50;11.00;;;;;;;;5449086;26;8828;-75
2024/04/16 02:46:12;;;;;;;;;11.25;10.50;;;;;;;;5448918;26;8832;-75
2024/04/16 02:48:37;;;;;;;;;10.50;10.50;;;;;;;;5449039;26;9498;-76
2024/04/16 02:51:02;;;;;;;;;12.50;9.00;;;;;;;;5448620;26;8820;-75
2024/04/16 02:53:28;;;;;;;;;14.00;11.25;;;;;;;;5448856;26;8813;-76
2024/04/16 02:55:53;;;;;;;;;12.75;11.75;;;;;;;;5448753;26;8856;-76
2024/04/16 02:58:18;;;;;;;;;13.00;12.00;;;;;;;;5449124;26;8805;-75
2024/04/16 03:00:44;;;;;;;;;15.00;12.25;;;;;;;;5449101;26;8820;-75
2024/04/16 03:03:10;;;;;;;;;13.00;12.00;;;;;;;;5448680;26;9580;-74
2024/04/16 03:05:35;;;;;;;;;13.00;9.25;;;;;;;;5446597;26;9631;-74
2024/04/16 03:08:01;;;;;;;;;13.50;12.00;;;;;;;;5449005;26;11601;-74
2024/04/16 03:10:26;;;;;;;;;12.00;11.00;;;;;;;;5448563;26;8836;-75
2024/04/16 03:12:54;;;;;;;;;13.00;11.50;;;;;;;;5448435;26;8886;-75
2024/04/16 03:15:19;;;;;;;;;12.00;12.00;;;;;;;;5446479;26;8832;-74
2024/04/16 03:17:44;;;;;;;;;13.75;12.50;;;;;;;;5448683;26;11694;-75
2024/04/16 03:20:10;;;;;;;;;12.00;11.00;;;;;;;;5446657;26;9037;-75
2024/04/16 03:22:35;;;;;;;;;13.25;12.00;;;;;;;;5448108;26;8822;-75
2024/04/16 03:25:00;;;;;;;;;13.25;12.25;;;;;;;;5448287;26;8812;-75
2024/04/16 03:27:26;;;;;;;;;12.00;12.00;;;;;;;;5448256;26;8922;-74
2024/04/16 03:29:51;;;;;;;;;13.50;13.50;;;;;;;;5448468;26;8832;-77
2024/04/16 03:32:16;;;;;;;;;11.50;11.25;;;;;;;;5448638;26;9018;-76
2024/04/16 03:34:41;;;;;;;;;14.00;12.50;;;;;;;;5448337;26;8936;-76
2024/04/16 03:37:07;;;;;;;;;13.00;13.00;;;;;;;;5448415;26;8855;-76
2024/04/16 03:39:32;;;;;;;;;13.25;11.50;;;;;;;;5448645;26;8840;-76
2024/04/16 03:41:57;;;;;;;;;17.50;14.25;;;;;;;;5448692;26;8796;-77
2024/04/16 03:44:22;;;;;;;;;13.75;13.25;;;;;;;;5447908;26;9553;-76
2024/04/16 03:46:48;;;;;;;;;13.00;12.50;;;;;;;;5447812;26;8856;-78
2024/04/16 03:49:13;;;;;;;;;12.75;12.00;;;;;;;;5448535;26;8834;-78
2024/04/16 03:51:38;;;;;;;;;14.00;12.00;;;;;;;;5448395;26;8828;-78
2024/04/16 03:54:03;;;;;;;;;16.50;14.25;;;;;;;;5446343;26;8820;-78
2024/04/16 03:56:29;;;;;;;;;15.50;14.00;;;;;;;;5448416;26;8827;-76
2024/04/16 03:59:14;;;;;;;;;12.50;11.50;;;;;;;;5448166;26;8816;-76
2024/04/16 04:01:39;;;;;;;;;13.50;13.50;;;;;;;;5447938;26;8845;-76
2024/04/16 04:04:04;;;;;;;;;14.00;12.25;;;;;;;;5447786;26;11610;-76
2024/04/16 04:06:30;;;;;;;;;13.75;13.75;;;;;;;;5447939;26;8850;-76
2024/04/16 04:08:55;;;;;;;;;10.00;10.00;;;;;;;;5448780;26;8816;-78
2024/04/16 04:11:20;;;;;;;;;11.00;10.50;;;;;;;;5448440;26;8824;-78
2024/04/16 04:13:45;;;;;;;;;17.00;13.00;;;;;;;;5447889;26;8847;-78
2024/04/16 04:16:12;;;;;;;;;11.75;9.75;;;;;;;;5446211;26;8819;-77
2024/04/16 04:18:37;;;;;;;;;12.50;11.25;;;;;;;;5448341;26;8878;-78
2024/04/16 04:21:02;;;;;;;;;11.75;11.50;;;;;;;;5447659;26;12323;-77
2024/04/16 04:23:28;;;;;;;;;12.25;12.25;;;;;;;;5447631;26;8828;-77
2024/04/16 04:25:53;;;;;;;;;7.75;7.00;;;;;;;;5447787;26;8832;-79
2024/04/16 04:28:18;;;;;;;;;15.00;15.00;;;;;;;;5447684;26;8963;-75
2024/04/16 04:30:44;;;;;;;;;20.50;15.75;;;;;;;;5447665;26;8897;-71
2024/04/16 04:33:10;;;;;;;;;14.00;12.50;;;;;;;;5448064;26;8858;-71
2024/04/16 04:35:35;;;;;;;;;14.25;12.25;;;;;;;;5447346;26;8847;-72
2024/04/16 04:38:00;;;;;;;;;18.00;14.75;;;;;;;;5444112;26;11723;-70
2024/04/16 04:40:26;;;;;;;;;13.00;12.25;;;;;;;;5446908;26;8874;-71
2024/04/16 04:42:51;;;;;;;;;21.25;16.00;;;;;;;;5447055;26;8832;-75
2024/04/16 04:45:16;;;;;;;;;16.75;14.00;;;;;;;;5447559;26;8878;-73
2024/04/16 04:47:42;;;;;;;;;13.50;13.50;;;;;;;;5447110;26;8896;-75
2024/04/16 04:50:07;;;;;;;;;15.00;13.00;;;;;;;;5447010;26;9265;-72
2024/04/16 04:52:32;;;;;;;;;17.75;16.25;;;;;;;;5447055;26;8928;-73
2024/04/16 04:55:01;;;;;;;;;17.25;15.75;;;;;;;;5447266;26;8931;-72
2024/04/16 04:57:27;;;;;;;;;18.75;16.25;;;;;;;;5446799;26;8976;-72
2024/04/16 04:59:52;;;;;;;;;17.75;15.25;;;;;;;;5446793;26;11604;-72
2024/04/16 05:02:17;;;;;;;;;16.25;14.75;;;;;;;;5446944;26;8862;-75
2024/04/16 05:04:42;;;;;;;;;14.75;13.25;;;;;;;;5446940;26;8852;-74
2024/04/16 05:07:07;;;;;;;;;13.75;11.50;;;;;;;;5446940;26;8870;-72
2024/04/16 05:09:33;;;;;;;;;18.00;16.25;;;;;;;;5447649;26;8838;-75
2024/04/16 05:11:58;;;;;;;;;18.00;17.50;;;;;;;;5447360;26;8866;-74
2024/04/16 05:14:25;;;;;;;;;20.25;18.00;;;;;;;;5446939;26;9498;-75
2024/04/16 05:16:50;;;;;;;;;15.50;13.50;;;;;;;;5447011;26;8916;-74
2024/04/16 05:19:15;;;;;;;;;16.50;14.00;;;;;;;;5446848;26;11586;-74
2024/04/16 05:21:40;;;;;;;;;13.00;13.00;;;;;;;;5446976;26;9562;-74
2024/04/16 05:24:06;;;;;;;;;13.25;12.75;;;;;;;;5427299;26;9636;-75
2024/04/16 05:26:31;;;;;;;;;14.75;12.00;;;;;;;;5403051;26;8836;-75
2024/04/16 05:28:56;;;;;;;;;14.00;13.50;;;;;;;;5395312;26;8923;-75
2024/04/16 05:31:21;;;;;;;;;13.00;11.00;;;;;;;;5409237;26;8828;-75
2024/04/16 05:33:47;;;;;;;;;15.50;12.25;;;;;;;;5376529;26;8839;-75
2024/04/16 05:36:12;;;;;;;;;13.25;11.25;;;;;;;;5375938;26;8976;-80
2024/04/16 05:38:37;;;;;;;;;13.00;11.75;;;;;;;;5379127;26;8839;-78
2024/04/16 05:41:03;;;;;;;;;11.75;11.75;;;;;;;;5411461;26;8832;-76
2024/04/16 05:43:28;;;;;;;;;12.00;11.75;;;;;;;;5430002;26;9580;-76
2024/04/16 05:45:54;;;;;;;;;11.75;10.75;;;;;;;;5446759;26;9020;-78
2024/04/16 05:48:19;;;;;;;;;13.50;11.75;;;;;;;;5447318;26;8839;-79
2024/04/16 05:50:44;;;;;;;;;11.25;10.25;;;;;;;;5450920;26;8835;-80
2024/04/16 05:53:10;;;;;;;;;11.00;10.25;;;;;;;;5451197;26;8952;-82
2024/04/16 05:55:35;;;;;;;;;15.25;12.75;;;;;;;;5318072;26;10495;-75
2024/04/16 05:58:01;;;;;;;;;17.75;12.00;;;;;;;;5318913;26;8855;-80
2024/04/16 06:00:26;;;;;;;;;12.75;12.75;;;;;;;;5304510;26;8830;-74
2024/04/16 06:02:51;;;;;;;;;15.25;12.25;;;;;;;;5306366;26;9445;-76
2024/04/16 06:05:16;;;;;;;;;12.50;10.25;;;;;;;;5309401;26;8893;-76
2024/04/16 06:07:42;;;;;;;;;17.00;13.75;;;;;;;;5309129;26;8889;-77
2024/04/16 06:10:07;;;;;;;;;13.00;11.00;;;;;;;;5307449;27;8895;-76
2024/04/16 06:12:32;;;;;;;;;11.00;9.50;;;;;;;;5313914;26;8835;-76
2024/04/16 06:14:59;;;;;;;;;10.50;9.25;;;;;;;;5343988;26;8807;-76
2024/04/16 06:17:24;;;;;;;;;11.25;9.25;;;;;;;;5342501;26;8835;-76
2024/04/16 06:19:49;;;;;;;;;14.25;11.00;;;;;;;;5344042;26;11721;-75
2024/04/16 06:22:14;;;;;;;;;10.00;10.00;;;;;;;;5343906;26;8835;-76
2024/04/16 06:24:40;;;;;;;;;8.00;7.00;;;;;;;;5344222;26;8970;-75
2024/04/16 06:27:05;;;;;;;;;8.50;6.00;;;;;;;;5341652;26;8866;-75
2024/04/16 06:29:30;;;;;;;;;10.75;10.00;;;;;;;;5343583;26;8865;-76
2024/04/16 06:31:56;;;;;;;;;11.50;8.50;;;;;;;;5341949;26;8822;-75
2024/04/16 06:34:21;;;;;;;;;10.50;7.50;;;;;;;;5343547;26;8839;-75
2024/04/16 06:36:46;;;;;;;;;11.50;11.00;;;;;;;;5343973;26;8919;-76
2024/04/16 06:39:11;;;;;;;;;11.25;8.25;;;;;;;;5333304;26;8882;-76
2024/04/16 06:41:37;;;;;;;;;11.25;9.00;;;;;;;;5309009;26;8854;-76
2024/04/16 06:44:02;;;;;;;;;12.75;10.00;;;;;;;;5335122;26;8839;-76
2024/04/16 06:46:27;;;;;;;;;12.00;7.75;;;;;;;;5343549;26;9098;-77
2024/04/16 06:48:52;;;;;;;;;12.25;10.50;;;;;;;;5344058;26;9572;-78
2024/04/16 06:51:18;;;;;;;;;13.50;9.50;;;;;;;;5343411;26;8884;-77
2024/04/16 06:53:43;;;;;;;;;14.50;13.25;;;;;;;;5343985;26;9075;-77
2024/04/16 06:56:08;;;;;;;;;10.00;8.75;;;;;;;;5343640;26;8846;-76
2024/04/16 06:58:34;;;;;;;;;11.00;6.50;;;;;;;;5343357;26;8822;-82
2024/04/16 07:00:59;;;;;;;;;12.00;8.75;;;;;;;;5342659;26;8842;-80
2024/04/16 07:03:25;;;;;;;;;12.50;10.00;;;;;;;;5342435;26;8893;-81
2024/04/16 07:05:50;;;;;;;;;11.75;9.50;;;;;;;;5343140;26;8850;-79
2024/04/16 07:08:15;;;;;;;;;8.50;6.75;;;;;;;;5340757;26;9592;-78
2024/04/16 07:10:41;;;;;;;;;12.50;9.50;;;;;;;;5340324;26;8850;-78
2024/04/16 07:13:06;;;;;;;;;9.00;9.00;;;;;;;;5340294;26;8963;-79
2024/04/16 07:15:32;;;;;;;;;11.25;7.25;;;;;;;;5342466;26;9059;-77
2024/04/16 07:17:58;;;;;;;;;6.25;5.75;;;;;;;;5342757;26;8854;-79
2024/04/16 07:20:23;;;;;;;;;9.50;6.50;;;;;;;;5342344;26;11131;-78
2024/04/16 07:22:48;;;;;;;;;7.50;7.25;;;;;;;;5340627;26;8858;-78
2024/04/16 07:25:14;;;;;;;;;7.75;6.00;;;;;;;;5342664;26;8881;-75
2024/04/16 07:27:39;;;;;;;;;12.25;6.50;;;;;;;;5342761;26;8922;-77
2024/04/16 07:30:04;;;;;;;;;9.25;9.00;;;;;;;;5340775;26;8900;-74
2024/04/16 07:32:30;;;;;;;;;8.00;4.00;;;;;;;;5342356;26;8826;-80
2024/04/16 07:34:55;;;;;;;;;7.75;7.00;;;;;;;;5342355;26;8881;-80
2024/04/16 07:37:20;;;;;;;;;4.50;4.50;;;;;;;;5340948;26;8850;-81
2024/04/16 07:39:46;;;;;;;;;6.75;6.00;;;;;;;;5340503;26;8929;-80
2024/04/16 07:42:11;;;;;;;;;10.50;8.25;;;;;;;;5342184;26;8878;-77
2024/04/16 07:44:36;;;;;;;;;8.25;6.00;;;;;;;;5340459;26;8870;-77
2024/04/16 07:47:02;;;;;;;;;7.75;5.25;;;;;;;;5342017;26;9599;-76
2024/04/16 07:49:27;;;;;;;;;8.00;4.25;;;;;;;;5332399;26;8826;-76
2024/04/16 07:51:52;;;;;;;;;6.00;5.00;;;;;;;;5342074;26;8850;-81
2024/04/16 07:54:18;;;;;;;;;10.75;7.25;;;;;;;;5342032;26;8872;-80
2024/04/16 07:56:43;;;;;;;;;7.50;6.00;;;;;;;;5339477;26;9031;-81
2024/04/16 07:59:08;;;;;;;;;10.00;7.25;;;;;;;;5341838;26;8862;-75
2024/04/16 08:01:33;;;;;;;;;9.25;7.25;;;;;;;;5342094;26;9060;-75
2024/04/16 08:03:59;;;;;;;;;6.25;5.50;;;;;;;;5340819;26;8887;-74
2024/04/16 08:06:24;;;;;;;;;5.00;5.00;;;;;;;;5341261;26;8854;-74
2024/04/16 08:08:50;;;;;;;;;4.00;4.00;;;;;;;;5341499;26;8850;-77
2024/04/16 08:11:16;;;;;;;;;6.00;3.00;;;;;;;;5340846;26;8845;-76
2024/04/16 08:13:41;;;;;;;;;9.00;8.75;;;;;;;;5341827;26;10356;-76
2024/04/16 08:16:07;;;;;;;;;3.50;3.00;;;;;;;;5341873;26;8873;-76
2024/04/16 08:18:32;;;;;;;;;14.75;10.50;;;;;;;;5339668;26;8819;-76
2024/04/16 08:20:57;;;;;;;;;0.75;0.75;;;;;;;;5341986;26;8868;-78
2024/04/16 08:23:22;;;;;;;;;5.00;3.00;;;;;;;;5341884;26;8847;-81
2024/04/16 08:26:01;;;;;;;;;5.00;2.50;;;;;;;;5341404;26;8915;-76
2024/04/16 08:28:26;;;;;;;;;6.50;4.00;;;;;;;;5341363;26;8854;-75
2024/04/16 08:30:53;;;;;;;;;6.50;5.00;;;;;;;;5340273;26;10530;-76
2024/04/16 08:33:20;;;;;;;;;5.00;3.00;;;;;;;;5342285;26;8847;-76
2024/04/16 08:35:45;;;;;;;;;7.00;4.00;;;;;;;;5340188;26;10475;-76
2024/04/16 08:38:10;;;;;;;;;5.50;4.25;;;;;;;;5342412;26;10536;-75
2024/04/16 08:40:36;;;;;;;;;7.25;4.50;;;;;;;;5341752;26;8949;-76
2024/04/16 08:43:02;;;;;;;;;18.00;17.00;;;;;;;;5341408;26;8846;-75
2024/04/16 08:45:28;;;;;;;;;10.00;7.75;;;;;;;;5338169;26;8957;-71
2024/04/16 08:47:55;;;;;;;;;5.50;4.75;;;;;;;;5337762;26;10929;-72
2024/04/16 08:50:22;;;;;;;;;4.50;3.50;;;;;;;;5330162;26;8953;-75
2024/04/16 08:52:48;;;;;;;;;4.50;3.00;;;;;;;;5340060;26;10522;-75
2024/04/16 08:55:14;;;;;;;;;7.00;4.50;;;;;;;;5342032;26;10350;-74
2024/04/16 08:57:40;;;;;;;;;8.25;3.50;;;;;;;;5341804;26;10595;-76
2024/04/16 09:00:06;;;;;;;;;4.25;3.25;;;;;;;;5341514;26;8846;-80
2024/04/16 09:02:32;;;;;;;;;5.00;3.00;;;;;;;;5341702;26;8842;-82
2024/04/16 09:04:59;;;;;;;;;4.00;4.00;;;;;;;;5340985;26;10742;-77
2024/04/16 09:07:25;;;;;;;;;8.50;4.00;;;;;;;;5341351;26;8885;-80
2024/04/16 09:09:50;;;;;;;;;4.25;3.00;;;;;;;;5342143;26;10622;-82
2024/04/16 09:12:16;;;;;;;;;4.75;3.00;;;;;;;;5342908;26;10504;-89
2024/04/16 09:14:41;;;;;;;;;3.00;2.00;;;;;;;;5342524;26;9083;-90
2024/04/16 09:17:12;;;;;;;;;5.00;2.00;;;;;;;;5343461;26;8882;-89
2024/04/16 09:19:37;;;;;;;;;6.00;3.00;;;;;;;;5343687;26;8865;-91
2024/04/16 09:22:03;;;;;;;;;3.50;3.00;;;;;;;;5342956;26;10118;-90
2024/04/16 09:24:28;;;;;;;;;5.50;4.75;;;;;;;;5341467;26;8838;-87
2024/04/16 09:26:53;;;;;;;;;5.75;4.00;;;;;;;;5342772;26;9019;-88
2024/04/16 09:29:25;;;;;;;;;3.75;1.25;;;;;;;;5340844;26;8830;-89
2024/04/16 09:32:03;;;;;;;;;2.67;2.67;;;;;;;;5341776;26;9908;-80
2024/04/16 09:34:29;;;;;;;;;6.67;4.00;;;;;;;;5340760;26;9336;-83
2024/04/16 09:36:55;;;;;;;;;2.33;2.00;;;;;;;;5341138;26;9268;-85
2024/04/16 09:39:21;;;;;;;;;2.67;2.00;;;;;;;;5340143;26;11602;-89
2024/04/16 09:41:49;;;;;;;;;3.00;3.00;;;;;;;;5341110;26;8819;-88
2024/04/16 09:44:15;;;;;;;;;4.50;2.75;;;;;;;;5314465;26;9035;-88
2024/04/16 09:46:42;;;;;;;;;3.25;2.25;;;;;;;;5308750;26;8920;-89
2024/04/16 09:49:09;;;;;;;;;5.00;3.75;;;;;;;;5306638;26;8850;-89
2024/04/16 09:51:35;;;;;;;;;3.00;3.00;;;;;;;;5306104;26;8839;-85
2024/04/16 09:54:02;;;;;;;;;2.25;1.25;;;;;;;;5306401;26;8884;-87
2024/04/16 09:56:28;;;;;;;;;3.00;3.00;;;;;;;;5305122;26;8839;-89
2024/04/16 09:58:55;;;;;;;;;8.00;4.00;;;;;;;;5311356;27;8937;-86
2024/04/16 10:01:22;;;;;;;;;4.00;3.00;;;;;;;;5310381;26;10503;-90
2024/04/16 10:03:50;;;;;;;;;5.00;2.25;;;;;;;;5306609;26;8846;-88
2024/04/16 10:06:16;;;;;;;;;3.00;2.00;;;;;;;;5308573;26;8951;-89
2024/04/16 10:08:41;;;;;;;;;3.00;1.67;;;;;;;;5309029;26;8827;-91
2024/04/16 10:11:06;;;;;;;;;0.67;0.00;;;;;;;;5309292;26;8831;-91
2024/04/16 10:13:33;;;;;;;;;3.00;2.00;;;;;;;;5327176;26;8862;-91
2024/04/16 10:15:58;;;;;;;;;3.00;1.50;;;;;;;;5343585;26;8803;-90
2024/04/16 10:18:24;;;;;;;;;3.00;2.00;;;;;;;;5342412;26;8912;-88
2024/04/16 10:20:54;;;;;;;;;4.00;2.33;;;;;;;;5342723;26;8914;-88
2024/04/16 10:23:20;;;;;;;;;3.00;2.00;;;;;;;;5342844;26;10197;-86
2024/04/16 10:25:49;;;;;;;;;5.33;3.00;;;;;;;;5338272;26;9167;-83
2024/04/16 10:28:25;;;;;;;;;3.00;3.00;;;;;;;;5337865;26;9181;-81
2024/04/16 10:31:00;;;;;;;;;4.33;3.00;;;;;;;;5337889;26;9240;-79
2024/04/16 10:33:26;;;;;;;;;1.67;1.67;;;;;;;;5337773;26;9215;-85
2024/04/16 10:35:53;;;;;;;;;4.00;3.00;;;;;;;;5343173;26;9498;-77
2024/04/16 10:38:18;;;;;;;;;3.00;3.00;;;;;;;;5343313;26;9359;-81
2024/04/16 10:40:52;;;;;;;;;3.00;3.00;;;;;;;;5343254;26;9189;-77
2024/04/16 10:43:21;;;;;;;;;13.25;13.00;;;;;;;;5343174;26;8855;-78
2024/04/16 10:45:46;;;;;;;;;3.50;2.50;;;;;;;;5341398;26;10126;-76
2024/04/16 10:48:12;;;;;;;;;1.25;1.25;;;;;;;;5342623;26;9603;-75
2024/04/16 10:50:40;;;;;;;;;10.75;9.00;;;;;;;;5343052;26;8838;-78
2024/04/16 10:53:13;;;;;;;;;31.50;30.00;;;;;;;;5342762;26;8889;-80
2024/04/16 10:55:40;;;;;;;;;3.25;3.00;;;;;;;;5343238;26;10767;-80
2024/04/16 10:58:07;;;;;;;;;5.50;2.75;;;;;;;;5340769;26;9650;-81
2024/04/16 11:00:32;;;;;;;;;3.25;2.00;;;;;;;;5318871;26;9628;-82
2024/04/16 11:02:58;;;;;;;;;3.50;2.00;;;;;;;;5312190;26;9599;-82
2024/04/16 11:05:24;;;;;;;;;2.25;1.25;;;;;;;;5308755;26;9528;-85
2024/04/16 11:07:53;;;;;;;;;26.50;24.00;;;;;;;;5317052;27;9442;-89
2024/04/16 11:10:21;;;;;;;;;8.00;3.50;;;;;;;;5330588;26;11039;-83
2024/04/16 11:12:47;;;;;;;;;3.00;2.00;;;;;;;;5320518;26;10577;-76
2024/04/16 11:15:12;;;;;;;;;4.25;2.00;;;;;;;;5343314;26;9643;-79
2024/04/16 11:17:38;;;;;;;;;11.75;8.75;;;;;;;;5342806;26;9011;-78
2024/04/16 11:20:04;;;;;;;;;17.50;16.25;;;;;;;;5328692;26;9569;-76
2024/04/16 11:22:29;;;;;;;;;6.00;3.50;;;;;;;;5303156;26;10621;-74
2024/04/16 11:24:55;;;;;;;;;5.50;3.75;;;;;;;;5303243;26;9079;-75
2024/04/16 11:27:21;;;;;;;;;4.00;2.50;;;;;;;;5305739;26;9880;-81
2024/04/16 11:29:50;;;;;;;;;4.75;2.00;;;;;;;;5312239;26;9027;-78
2024/04/16 11:32:16;;;;;;;;;5.00;3.50;;;;;;;;5309930;26;9681;-89
2024/04/16 11:34:42;;;;;;;;;2.75;2.50;;;;;;;;5307456;26;9835;-80
2024/04/16 11:37:08;;;;;;;;;6.00;4.00;;;;;;;;5304966;26;8855;-84
2024/04/16 11:39:33;;;;;;;;;7.00;4.00;;;;;;;;5303465;26;9790;-82
2024/04/16 11:41:58;;;;;;;;;4.00;3.50;;;;;;;;5302964;26;9020;-83
2024/04/16 11:44:25;;;;;;;;;6.00;4.00;;;;;;;;5306462;26;8902;-84
2024/04/16 11:46:50;;;;;;;;;8.00;2.75;;;;;;;;5306111;26;8969;-82
2024/04/16 11:49:15;;;;;;;;;5.75;4.00;;;;;;;;5306567;26;10163;-83
2024/04/16 11:51:40;;;;;;;;;3.00;3.00;;;;;;;;5310665;26;8859;-84
2024/04/16 11:54:06;;;;;;;;;5.00;3.00;;;;;;;;5307496;26;8843;-89
2024/04/16 11:56:31;;;;;;;;;5.00;3.00;;;;;;;;5306945;26;8854;-87
2024/04/16 11:58:56;;;;;;;;;9.50;7.50;;;;;;;;5309375;26;8838;-88
2024/04/16 12:01:21;;;;;;;;;8.25;6.50;;;;;;;;5307568;27;8834;-90
2024/04/16 12:03:47;;;;;;;;;7.25;5.50;;;;;;;;5307219;26;8851;-83
2024/04/16 12:06:12;;;;;;;;;10.25;6.00;;;;;;;;5307996;26;8847;-81
2024/04/16 12:08:37;;;;;;;;;4.25;3.00;;;;;;;;5308999;26;8858;-84
2024/04/16 12:11:02;;;;;;;;;6.50;6.25;;;;;;;;5307951;26;8964;-83
2024/04/16 12:13:28;;;;;;;;;8.00;6.00;;;;;;;;5327604;26;8838;-87
2024/04/16 12:15:53;;;;;;;;;3.50;3.50;;;;;;;;5343416;26;8814;-85
2024/04/16 12:18:18;;;;;;;;;4.75;4.75;;;;;;;;5343372;26;8876;-84
2024/04/16 12:20:44;;;;;;;;;3.25;3.00;;;;;;;;5325358;26;8834;-75
2024/04/16 12:23:09;;;;;;;;;6.00;3.00;;;;;;;;5308226;26;8865;-75
2024/04/16 12:25:34;;;;;;;;;4.00;4.00;;;;;;;;5308560;26;8976;-76
2024/04/16 12:28:00;;;;;;;;;6.00;2.00;;;;;;;;5307963;26;8846;-76
2024/04/16 12:30:25;;;;;;;;;4.00;3.00;;;;;;;;5306219;27;8850;-76
2024/04/16 12:32:51;;;;;;;;;4.50;2.00;;;;;;;;5307753;26;8862;-77
2024/04/16 12:35:16;;;;;;;;;5.50;3.00;;;;;;;;5307540;26;8874;-72
2024/04/16 12:37:41;;;;;;;;;6.00;3.00;;;;;;;;5305708;27;8846;-73
2024/04/16 12:40:07;;;;;;;;;3.50;3.50;;;;;;;;5305621;26;8882;-74
2024/04/16 12:42:32;;;;;;;;;4.25;3.75;;;;;;;;5311750;26;8865;-80
2024/04/16 12:44:57;;;;;;;;;7.50;5.00;;;;;;;;5340631;26;8846;-78
2024/04/16 12:47:23;;;;;;;;;8.50;4.50;;;;;;;;5342382;26;8953;-80
2024/04/16 12:49:48;;;;;;;;;2.50;2.50;;;;;;;;5341217;26;8835;-87
2024/04/16 12:52:13;;;;;;;;;3.50;2.75;;;;;;;;5344066;26;8857;-76
2024/04/16 12:54:40;;;;;;;;;5.75;5.00;;;;;;;;5342482;26;8839;-82
2024/04/16 12:57:05;;;;;;;;;15.25;12.75;;;;;;;;5341180;26;8851;-81
2024/04/16 12:59:31;;;;;;;;;2.00;2.00;;;;;;;;5330962;26;10321;-77
2024/04/16 13:01:56;;;;;;;;;7.25;4.50;;;;;;;;5307057;26;8932;-77
2024/04/16 13:04:21;;;;;;;;;4.00;4.00;;;;;;;;5307606;26;8858;-77
2024/04/16 13:06:47;;;;;;;;;5.25;3.00;;;;;;;;5304129;26;8936;-78
2024/04/16 13:09:12;;;;;;;;;5.00;2.50;;;;;;;;5306060;26;8858;-76
2024/04/16 13:11:37;;;;;;;;;6.25;4.25;;;;;;;;5305830;26;8861;-77
2024/04/16 13:14:02;;;;;;;;;5.00;3.00;;;;;;;;5307708;26;8901;-74
2024/04/16 13:16:28;;;;;;;;;5.50;3.25;;;;;;;;5305203;26;8838;-74
2024/04/16 13:18:53;;;;;;;;;5.50;2.50;;;;;;;;5304752;26;8873;-74
2024/04/16 13:21:18;;;;;;;;;4.50;3.00;;;;;;;;5303419;26;8815;-74
2024/04/16 13:23:43;;;;;;;;;2.50;2.25;;;;;;;;5303547;26;8846;-73
2024/04/16 13:26:09;;;;;;;;;4.50;2.00;;;;;;;;5306118;26;9044;-74
2024/04/16 13:28:34;;;;;;;;;4.00;2.75;;;;;;;;5305091;26;9045;-74
2024/04/16 13:31:00;;;;;;;;;3.00;3.00;;;;;;;;5304636;26;8834;-73
2024/04/16 13:33:25;;;;;;;;;3.75;3.25;;;;;;;;5303571;26;8855;-74
2024/04/16 13:35:51;;;;;;;;;4.00;4.00;;;;;;;;5303435;26;8827;-73
2024/04/16 13:38:20;;;;;;;;;3.00;2.00;;;;;;;;5305121;26;8815;-74
2024/04/16 13:40:46;;;;;;;;;3.00;2.25;;;;;;;;5303260;27;8870;-74
2024/04/16 13:43:12;;;;;;;;;3.50;3.00;;;;;;;;5304969;26;10145;-74
2024/04/16 13:45:37;;;;;;;;;3.50;2.00;;;;;;;;5303343;26;8863;-72
2024/04/16 13:48:02;;;;;;;;;3.00;3.00;;;;;;;;5304949;26;8925;-73
2024/04/16 13:50:28;;;;;;;;;4.00;3.00;;;;;;;;5305165;26;8951;-74
2024/04/16 13:52:53;;;;;;;;;5.75;4.00;;;;;;;;5304708;26;8835;-73
2024/04/16 13:55:18;;;;;;;;;6.00;2.25;;;;;;;;5304955;26;8874;-73
2024/04/16 13:57:43;;;;;;;;;4.75;3.00;;;;;;;;5300224;26;8870;-74
2024/04/16 14:00:09;;;;;;;;;3.25;2.25;;;;;;;;5305242;26;8885;-74
2024/04/16 14:02:34;;;;;;;;;6.75;2.00;;;;;;;;5303272;26;8866;-73
2024/04/16 14:04:59;;;;;;;;;4.00;2.00;;;;;;;;5302898;26;8859;-73
2024/04/16 14:07:25;;;;;;;;;3.25;2.25;;;;;;;;5304232;26;9620;-73
2024/04/16 14:09:50;;;;;;;;;3.25;2.50;;;;;;;;5305209;26;8854;-73
2024/04/16 14:12:15;;;;;;;;;3.00;2.00;;;;;;;;5305390;27;8858;-73
2024/04/16 14:14:40;;;;;;;;;2.00;2.00;;;;;;;;5305641;26;8842;-73
2024/04/16 14:17:06;;;;;;;;;7.25;4.50;;;;;;;;5305364;26;8901;-73
2024/04/16 14:19:31;;;;;;;;;4.75;3.75;;;;;;;;5300342;26;8847;-73
2024/04/16 14:21:57;;;;;;;;;5.75;4.50;;;;;;;;5307196;26;8842;-73
2024/04/16 14:24:24;;;;;;;;;2.75;2.00;;;;;;;;5306976;26;8846;-73
2024/04/16 14:26:50;;;;;;;;;4.50;3.50;;;;;;;;5306921;26;9018;-72
2024/04/16 14:29:15;;;;;;;;;6.50;2.25;;;;;;;;5306942;26;10063;-73
2024/04/16 14:31:41;;;;;;;;;3.50;1.00;;;;;;;;5307013;26;8815;-72